createdAt,value
2022-07-29T00:02:11.647Z,20.43
2022-07-29T00:04:40.472Z,20.36
2022-07-29T00:07:08.777Z,20.34
2022-07-29T00:09:50.389Z,20.38
2022-07-29T00:12:25.177Z,20.28
2022-07-29T00:14:54.313Z,20.22
2022-07-29T00:17:23.952Z,20.23
2022-07-29T00:19:52.184Z,20.21
2022-07-29T00:22:20.680Z,20.24
2022-07-29T00:24:49.984Z,20.27
2022-07-29T00:27:18.016Z,20.28
2022-07-29T00:29:46.127Z,20.33
2022-07-29T00:32:14.305Z,20.32
2022-07-29T00:35:01.118Z,20.26
2022-07-29T00:37:29.106Z,20.22
2022-07-29T00:39:57.146Z,20.18
2022-07-29T00:42:25.153Z,20.25
2022-07-29T00:44:53.131Z,20.34
2022-07-29T00:47:21.362Z,20.40
2022-07-29T00:49:50.657Z,20.43
2022-07-29T00:52:18.669Z,20.38
2022-07-29T00:54:46.994Z,20.46
2022-07-29T00:57:15.407Z,20.45
2022-07-29T00:59:43.579Z,20.45
2022-07-29T01:02:14.646Z,20.41
2022-07-29T01:04:43.547Z,20.38
2022-07-29T01:07:13.356Z,20.31
2022-07-29T01:09:46.007Z,20.20
2022-07-29T01:12:17.742Z,20.15
2022-07-29T01:14:46.815Z,20.08
2022-07-29T01:17:18.870Z,19.99
2022-07-29T01:19:51.709Z,19.97
2022-07-29T01:22:40.053Z,20.00
2022-07-29T01:25:15.547Z,20.07
2022-07-29T01:28:15.185Z,20.07
2022-07-29T01:30:46.429Z,19.97
2022-07-29T01:33:39.191Z,19.86
2022-07-29T01:36:11.032Z,19.81
2022-07-29T01:38:41.079Z,19.76
2022-07-29T01:41:12.262Z,19.68
2022-07-29T01:43:44.841Z,19.65
2022-07-29T01:46:16.886Z,19.59
2022-07-29T01:48:49.505Z,19.61
2022-07-29T01:51:21.971Z,19.71
2022-07-29T01:53:54.912Z,19.86
2022-07-29T01:56:24.423Z,19.91
2022-07-29T01:58:54.505Z,19.94
2022-07-29T02:01:25.462Z,19.76
2022-07-29T02:03:56.018Z,19.61
2022-07-29T02:06:25.030Z,19.59
2022-07-29T02:08:53.875Z,19.62
2022-07-29T02:11:21.909Z,19.68
2022-07-29T02:13:51.440Z,19.74
2022-07-29T02:16:21.483Z,19.79
2022-07-29T02:18:53.270Z,19.81
2022-07-29T02:21:23.998Z,19.83
2022-07-29T02:23:54.059Z,19.81
2022-07-29T02:26:23.110Z,19.83
2022-07-29T02:28:52.731Z,19.84
2022-07-29T02:31:23.263Z,19.87
2022-07-29T02:33:56.372Z,19.91
2022-07-29T02:36:25.119Z,19.94
2022-07-29T02:38:54.386Z,19.93
2022-07-29T02:41:27.032Z,19.94
2022-07-29T02:43:57.913Z,19.93
2022-07-29T02:46:30.212Z,19.92
2022-07-29T02:49:03.440Z,19.95
2022-07-29T02:51:43.794Z,19.92
2022-07-29T02:54:17.886Z,19.91
2022-07-29T02:56:46.757Z,19.91
2022-07-29T02:59:16.637Z,19.91
2022-07-29T03:01:45.907Z,19.85
2022-07-29T03:04:17.452Z,19.82
2022-07-29T03:06:46.645Z,19.71
2022-07-29T03:09:15.835Z,19.74
2022-07-29T03:11:49.480Z,19.75
2022-07-29T03:14:20.469Z,19.77
2022-07-29T03:16:48.961Z,19.78
2022-07-29T03:19:18.684Z,19.74
2022-07-29T03:21:46.721Z,19.62
2022-07-29T03:24:27.602Z,19.58
2022-07-29T03:26:57.003Z,19.55
2022-07-29T03:29:25.013Z,19.54
2022-07-29T03:32:01.456Z,19.52
2022-07-29T03:34:32.370Z,19.45
2022-07-29T03:37:02.325Z,19.47
2022-07-29T03:39:35.171Z,19.37
2022-07-29T03:42:03.319Z,19.39
2022-07-29T03:44:32.239Z,19.40
2022-07-29T03:47:03.031Z,19.44
2022-07-29T03:49:33.321Z,19.47
2022-07-29T03:52:01.395Z,19.47
2022-07-29T03:54:29.854Z,19.31
2022-07-29T03:57:02.513Z,19.26
2022-07-29T03:59:31.228Z,19.28
2022-07-29T04:02:02.528Z,19.31
2022-07-29T04:04:34.795Z,19.34
2022-07-29T04:07:03.406Z,19.38
2022-07-29T04:09:31.785Z,19.42
2022-07-29T04:12:03.542Z,19.35
2022-07-29T04:14:32.850Z,19.21
2022-07-29T04:17:01.303Z,19.20
2022-07-29T04:19:29.609Z,19.25
2022-07-29T04:21:59.157Z,19.29
2022-07-29T04:24:27.510Z,19.30
2022-07-29T04:26:55.931Z,19.17
2022-07-29T04:29:24.034Z,19.13
2022-07-29T04:31:52.397Z,19.16
2022-07-29T04:34:20.749Z,19.17
2022-07-29T04:36:49.056Z,19.21
2022-07-29T04:39:22.946Z,19.23
2022-07-29T04:41:52.446Z,19.30
2022-07-29T04:44:28.669Z,19.33
2022-07-29T04:46:57.832Z,19.37
2022-07-29T04:49:26.476Z,19.38
2022-07-29T04:51:54.565Z,19.29
2022-07-29T04:54:24.334Z,19.18
2022-07-29T04:56:53.645Z,19.15
2022-07-29T04:59:22.344Z,19.06
2022-07-29T05:01:50.353Z,19.10
2022-07-29T05:04:19.125Z,19.15
2022-07-29T05:06:47.915Z,19.21
2022-07-29T05:09:33.848Z,19.25
2022-07-29T05:12:01.945Z,19.27
2022-07-29T05:14:30.066Z,19.29
2022-07-29T05:16:58.409Z,19.32
2022-07-29T05:19:26.623Z,19.41
2022-07-29T05:21:54.833Z,19.48
2022-07-29T05:24:23.326Z,19.49
2022-07-29T05:26:52.533Z,19.53
2022-07-29T05:29:43.938Z,19.54
2022-07-29T05:32:08.966Z,19.59
2022-07-29T05:34:36.923Z,19.61
2022-07-29T05:37:18.743Z,19.68
2022-07-29T05:39:48.467Z,19.73
2022-07-29T05:42:19.654Z,19.78
2022-07-29T05:44:48.452Z,19.80
2022-07-29T05:47:16.987Z,19.87
2022-07-29T05:49:44.901Z,19.90
2022-07-29T05:52:14.109Z,19.97
2022-07-29T05:54:42.166Z,20.01
2022-07-29T05:57:10.481Z,20.08
2022-07-29T05:59:56.960Z,20.12
2022-07-29T06:02:32.387Z,20.19
2022-07-29T06:05:00.749Z,20.20
2022-07-29T06:07:29.187Z,20.32
2022-07-29T06:09:59.668Z,20.35
2022-07-29T06:12:27.616Z,20.44
2022-07-29T06:14:57.816Z,20.47
2022-07-29T06:17:31.470Z,20.55
2022-07-29T06:19:59.626Z,20.60
2022-07-29T06:22:27.691Z,20.66
2022-07-29T06:24:58.572Z,20.77
2022-07-29T06:27:26.785Z,20.80
2022-07-29T06:30:00.775Z,20.87
2022-07-29T06:32:28.777Z,20.95
2022-07-29T06:35:24.553Z,21.00
2022-07-29T06:37:46.985Z,21.07
2022-07-29T06:40:34.440Z,21.16
2022-07-29T06:43:02.511Z,21.23
2022-07-29T06:45:34.803Z,21.34
2022-07-29T06:48:03.042Z,21.42
2022-07-29T06:50:32.880Z,21.57
2022-07-29T06:53:02.702Z,21.57
2022-07-29T06:55:30.848Z,21.67
2022-07-29T06:58:08.047Z,21.73
2022-07-29T07:00:39.644Z,21.81
2022-07-29T07:03:07.820Z,21.85
2022-07-29T07:05:38.409Z,21.89
2022-07-29T07:08:12.117Z,21.94
2022-07-29T07:10:40.597Z,21.99
2022-07-29T07:13:10.070Z,22.02
2022-07-29T07:15:40.341Z,22.08
2022-07-29T07:18:09.897Z,22.15
2022-07-29T07:20:38.554Z,22.29
2022-07-29T07:23:15.012Z,22.47
2022-07-29T07:25:46.312Z,22.62
2022-07-29T07:28:14.539Z,22.85
2022-07-29T07:30:44.461Z,23.00
2022-07-29T07:33:12.619Z,23.17
2022-07-29T07:35:40.750Z,23.29
2022-07-29T07:38:11.331Z,23.40
2022-07-29T07:40:39.559Z,23.45
2022-07-29T07:43:10.683Z,23.58
2022-07-29T07:45:41.088Z,23.83
2022-07-29T07:48:12.228Z,23.87
2022-07-29T07:50:40.346Z,23.96
2022-07-29T07:53:10.061Z,23.90
2022-07-29T07:58:30.581Z,24.17
2022-07-29T08:01:03.545Z,24.36
2022-07-29T08:03:33.189Z,24.50
2022-07-29T08:06:03.095Z,24.50
2022-07-29T08:08:31.282Z,24.56
2022-07-29T08:11:09.387Z,24.85
2022-07-29T08:13:38.962Z,25.08
2022-07-29T08:16:13.983Z,25.17
2022-07-29T08:18:45.112Z,25.19
2022-07-29T08:21:16.339Z,25.34
2022-07-29T08:23:59.569Z,25.24
2022-07-29T08:26:28.808Z,25.28
2022-07-29T08:28:56.688Z,25.16
2022-07-29T08:31:24.790Z,25.25
2022-07-29T08:33:54.304Z,25.37
2022-07-29T08:36:23.082Z,25.62
2022-07-29T08:38:51.987Z,25.90
2022-07-29T08:41:21.181Z,25.89
2022-07-29T08:43:49.168Z,25.82
2022-07-29T08:46:18.169Z,25.82
2022-07-29T08:48:46.809Z,25.86
2022-07-29T08:51:17.871Z,26.13
2022-07-29T08:53:48.470Z,26.17
2022-07-29T08:56:17.851Z,26.26
2022-07-29T08:58:50.670Z,26.17
2022-07-29T09:01:35.008Z,26.12
2022-07-29T09:04:11.293Z,26.24
2022-07-29T09:06:44.727Z,26.47
2022-07-29T09:09:13.154Z,26.45
2022-07-29T09:11:41.270Z,26.60
2022-07-29T09:14:09.945Z,26.91
2022-07-29T09:16:55.398Z,26.85
2022-07-29T09:19:28.871Z,26.66
2022-07-29T09:22:03.310Z,26.65
2022-07-29T09:24:45.396Z,26.54
2022-07-29T09:27:22.094Z,26.69
2022-07-29T09:29:58.630Z,26.85
2022-07-29T09:32:29.262Z,26.93
2022-07-29T09:35:22.204Z,26.98
2022-07-29T09:37:52.219Z,26.98
2022-07-29T09:40:21.839Z,27.04
2022-07-29T09:42:50.186Z,27.09
2022-07-29T09:45:29.929Z,27.12
2022-07-29T09:48:09.874Z,27.09
2022-07-29T09:50:40.047Z,27.11
2022-07-29T09:53:10.592Z,27.23
2022-07-29T09:55:49.170Z,27.16
2022-07-29T09:58:18.582Z,27.24
2022-07-29T10:00:48.023Z,27.52
2022-07-29T10:03:16.980Z,27.58
2022-07-29T10:05:45.918Z,27.71
2022-07-29T10:08:15.413Z,27.72
2022-07-29T10:10:44.866Z,27.81
2022-07-29T10:13:16.032Z,27.78
2022-07-29T10:15:47.363Z,28.04
2022-07-29T10:18:18.539Z,28.20
2022-07-29T10:20:46.934Z,28.18
2022-07-29T10:23:16.788Z,28.34
2022-07-29T10:25:46.637Z,28.52
2022-07-29T10:28:16.803Z,28.39
2022-07-29T10:30:45.831Z,28.26
2022-07-29T10:33:24.658Z,28.15
2022-07-29T10:36:18.611Z,28.00
2022-07-29T10:38:56.857Z,27.99
2022-07-29T10:41:51.811Z,28.03
2022-07-29T10:44:23.234Z,27.78
2022-07-29T10:46:53.444Z,27.77
2022-07-29T10:49:25.237Z,27.62
2022-07-29T10:52:01.763Z,27.41
2022-07-29T10:54:48.657Z,27.23
2022-07-29T10:57:21.441Z,27.20
2022-07-29T11:00:32.897Z,27.12
2022-07-29T11:03:04.900Z,27.10
2022-07-29T11:05:55.361Z,26.90
2022-07-29T11:08:28.013Z,26.83
2022-07-29T11:11:39.711Z,26.74
2022-07-29T11:14:13.624Z,26.58
2022-07-29T11:17:00.861Z,26.38
2022-07-29T11:19:30.557Z,26.31
2022-07-29T11:21:59.362Z,26.36
2022-07-29T11:24:34.890Z,26.27
2022-07-29T11:27:18.429Z,26.15
2022-07-29T11:29:57.363Z,26.04
2022-07-29T11:35:19.319Z,25.85
2022-07-29T11:38:28.786Z,25.80
2022-07-29T11:41:22.940Z,25.66
2022-07-29T11:43:53.279Z,25.61
2022-07-29T11:46:50.841Z,25.52
2022-07-29T11:49:33.011Z,25.50
2022-07-29T11:52:04.102Z,25.35
2022-07-29T11:54:57.459Z,25.18
2022-07-29T11:57:22.481Z,25.09
2022-07-29T11:59:50.876Z,25.02
2022-07-29T12:02:36.336Z,25.02
2022-07-29T12:05:10.892Z,24.93
2022-07-29T12:07:41.150Z,24.89
2022-07-29T12:10:19.728Z,24.86
2022-07-29T12:12:57.887Z,24.80
2022-07-29T12:15:45.553Z,24.75
2022-07-29T12:18:24.228Z,24.47
2022-07-29T12:21:04.822Z,24.28
2022-07-29T12:23:35.099Z,24.03
2022-07-29T12:26:07.591Z,24.04
2022-07-29T12:28:51.580Z,24.02
2022-07-29T12:31:42.348Z,23.97
2022-07-29T12:34:09.267Z,23.89
2022-07-29T12:36:38.317Z,23.90
2022-07-29T12:39:06.825Z,23.94
2022-07-29T12:41:35.035Z,24.03
2022-07-29T12:44:03.175Z,24.20
2022-07-29T12:46:31.249Z,24.50
2022-07-29T12:48:59.899Z,24.79
2022-07-29T12:51:33.410Z,25.00
2022-07-29T12:54:08.033Z,25.15
2022-07-29T12:56:45.642Z,25.26
2022-07-29T12:59:19.502Z,25.28
2022-07-29T13:01:50.285Z,25.35
2022-07-29T13:04:33.476Z,25.37
2022-07-29T13:07:04.377Z,25.35
2022-07-29T13:09:39.918Z,25.29
2022-07-29T13:12:09.488Z,25.29
2022-07-29T13:14:41.033Z,25.36
2022-07-29T13:17:11.924Z,25.43
2022-07-29T13:19:41.584Z,25.33
2022-07-29T13:22:12.448Z,25.30
2022-07-29T13:24:54.681Z,25.19
2022-07-29T13:27:24.129Z,25.09
2022-07-29T13:29:55.308Z,24.99
2022-07-29T13:32:32.105Z,24.74
2022-07-29T13:35:05.228Z,24.71
2022-07-29T13:37:36.301Z,24.63
2022-07-29T13:40:05.583Z,24.53
2022-07-29T13:42:34.434Z,24.43
2022-07-29T13:45:03.008Z,24.38
2022-07-29T13:47:32.628Z,24.32
2022-07-29T13:50:01.556Z,24.38
2022-07-29T13:52:29.646Z,24.41
2022-07-29T13:54:59.364Z,24.39
2022-07-29T13:57:30.574Z,24.26
2022-07-29T14:00:01.003Z,24.14
2022-07-29T14:02:34.134Z,23.97
2022-07-29T14:05:07.679Z,23.90
2022-07-29T14:07:41.029Z,23.88
2022-07-29T14:10:11.298Z,23.66
2022-07-29T14:12:41.934Z,23.37
2022-07-29T14:15:11.737Z,23.27
2022-07-29T14:17:39.721Z,23.19
2022-07-29T14:20:14.147Z,23.18
2022-07-29T14:22:42.578Z,23.11
2022-07-29T14:25:17.365Z,23.03
2022-07-29T14:27:47.739Z,23.11
2022-07-29T14:30:16.684Z,23.10
2022-07-29T14:32:45.290Z,23.14
2022-07-29T14:35:13.454Z,23.15
2022-07-29T14:37:43.269Z,23.17
2022-07-29T14:40:12.146Z,23.23
2022-07-29T14:42:42.250Z,23.27
2022-07-29T14:45:13.546Z,23.37
2022-07-29T14:47:42.866Z,23.40
2022-07-29T14:50:11.856Z,23.40
2022-07-29T14:52:40.233Z,23.45
2022-07-29T14:55:19.827Z,23.53
2022-07-29T14:57:50.919Z,23.61
2022-07-29T15:00:19.545Z,23.67
2022-07-29T15:03:03.328Z,23.72
2022-07-29T15:05:39.554Z,23.75
2022-07-29T15:08:09.212Z,23.80
2022-07-29T15:10:37.369Z,23.86
2022-07-29T15:13:06.917Z,23.90
2022-07-29T15:15:34.886Z,23.97
2022-07-29T15:18:02.733Z,23.97
2022-07-29T15:20:30.714Z,24.00
2022-07-29T15:22:58.660Z,24.06
2022-07-29T15:25:28.164Z,24.02
2022-07-29T15:28:00.803Z,24.00
2022-07-29T15:30:33.235Z,24.03
2022-07-29T15:33:01.679Z,24.05
2022-07-29T15:35:29.560Z,24.03
2022-07-29T15:37:57.651Z,24.05
2022-07-29T15:40:25.609Z,24.07
2022-07-29T15:42:53.733Z,24.11
2022-07-29T15:45:22.008Z,24.12
2022-07-29T15:47:51.444Z,24.09
2022-07-29T15:50:22.217Z,24.12
2022-07-29T15:52:52.643Z,24.12
2022-07-29T15:55:22.519Z,24.11
2022-07-29T15:57:50.508Z,24.16
2022-07-29T16:00:19.716Z,24.16
2022-07-29T16:02:47.678Z,24.13
2022-07-29T16:05:17.024Z,24.20
2022-07-29T16:07:45.413Z,24.13
2022-07-29T16:10:15.574Z,24.16
2022-07-29T16:12:43.732Z,24.13
2022-07-29T16:15:14.590Z,24.17
2022-07-29T16:17:45.521Z,24.12
2022-07-29T16:20:13.950Z,24.17
2022-07-29T16:22:45.631Z,24.21
2022-07-29T16:25:13.610Z,24.22
2022-07-29T16:27:41.652Z,24.20
2022-07-29T16:30:10.769Z,24.32
2022-07-29T16:32:39.888Z,24.38
2022-07-29T16:35:09.099Z,24.38
2022-07-29T16:37:38.027Z,24.42
2022-07-29T16:40:11.497Z,24.44
2022-07-29T16:42:47.707Z,24.47
2022-07-29T16:45:21.384Z,24.49
2022-07-29T16:47:49.675Z,24.45
2022-07-29T16:50:18.988Z,24.48
2022-07-29T16:52:46.950Z,24.47
2022-07-29T16:55:16.475Z,24.44
2022-07-29T16:57:44.515Z,24.44
2022-07-29T17:00:14.242Z,24.43
2022-07-29T17:02:42.316Z,24.44
2022-07-29T17:05:12.401Z,24.48
2022-07-29T17:07:40.999Z,24.44
2022-07-29T17:10:10.150Z,24.45
2022-07-29T17:12:41.101Z,24.43
2022-07-29T17:15:12.614Z,24.41
2022-07-29T17:17:55.369Z,24.40
2022-07-29T17:20:26.624Z,24.30
2022-07-29T17:22:54.685Z,24.26
2022-07-29T17:25:22.794Z,24.29
2022-07-29T17:28:00.599Z,24.22
2022-07-29T17:30:33.322Z,24.22
2022-07-29T17:33:01.414Z,24.19
2022-07-29T17:35:46.820Z,24.16
2022-07-29T17:38:14.770Z,24.16
2022-07-29T17:40:42.777Z,24.12
2022-07-29T17:43:12.440Z,24.10
2022-07-29T17:45:49.394Z,24.08
2022-07-29T17:48:21.532Z,24.06
2022-07-29T17:50:52.903Z,24.03
2022-07-29T17:53:20.940Z,24.05
2022-07-29T17:55:50.005Z,24.04
2022-07-29T17:58:19.436Z,24.00
2022-07-29T18:00:47.694Z,23.98
2022-07-29T18:03:15.888Z,23.89
2022-07-29T18:05:43.998Z,23.90
2022-07-29T18:08:12.567Z,23.90
2022-07-29T18:10:41.339Z,23.87
2022-07-29T18:13:09.448Z,23.85
2022-07-29T18:15:38.730Z,23.80
2022-07-29T18:18:06.827Z,23.79
2022-07-29T18:20:34.930Z,23.72
2022-07-29T18:23:04.599Z,23.66
2022-07-29T18:25:34.525Z,23.62
2022-07-29T18:28:08.861Z,23.59
2022-07-29T18:30:38.253Z,23.57
2022-07-29T18:33:24.265Z,23.51
2022-07-29T18:36:10.598Z,23.43
2022-07-29T18:38:39.290Z,23.39
2022-07-29T18:41:07.977Z,23.35
2022-07-29T18:43:35.938Z,23.29
2022-07-29T18:46:06.875Z,23.26
2022-07-29T18:48:35.280Z,23.18
2022-07-29T18:51:03.164Z,23.17
2022-07-29T18:53:37.622Z,23.10
2022-07-29T18:56:08.313Z,23.03
2022-07-29T18:58:38.313Z,23.01
2022-07-29T19:01:07.590Z,22.96
2022-07-29T19:03:35.656Z,22.89
2022-07-29T19:06:03.599Z,22.81
2022-07-29T19:08:32.208Z,22.77
2022-07-29T19:11:00.137Z,22.69
2022-07-29T19:13:28.451Z,22.63
2022-07-29T19:15:57.691Z,22.59
2022-07-29T19:18:27.022Z,22.55
2022-07-29T19:20:54.886Z,22.54
2022-07-29T19:23:22.848Z,22.50
2022-07-29T19:25:53.600Z,22.49
2022-07-29T19:28:22.431Z,22.46
2022-07-29T19:30:50.762Z,22.46
2022-07-29T19:33:21.669Z,22.43
2022-07-29T19:35:54.768Z,22.43
2022-07-29T19:38:23.134Z,22.43
2022-07-29T19:40:51.373Z,22.48
2022-07-29T19:43:52.063Z,22.39
2022-07-29T19:46:07.234Z,22.37
2022-07-29T19:48:35.225Z,22.37
2022-07-29T19:51:04.813Z,22.28
2022-07-29T19:53:33.389Z,22.27
2022-07-29T19:56:01.556Z,22.29
2022-07-29T19:58:29.900Z,22.23
2022-07-29T20:00:57.774Z,22.20
2022-07-29T20:03:25.637Z,22.20
2022-07-29T20:05:53.946Z,22.16
2022-07-29T20:08:25.785Z,22.13
2022-07-29T20:10:56.993Z,22.04
2022-07-29T20:13:24.869Z,21.98
2022-07-29T20:15:55.268Z,21.90
2022-07-29T20:18:23.449Z,21.86
2022-07-29T20:20:51.478Z,21.79
2022-07-29T20:23:22.217Z,21.74
2022-07-29T20:25:51.524Z,21.74
2022-07-29T20:28:19.781Z,21.69
2022-07-29T20:30:47.873Z,21.66
2022-07-29T20:33:16.191Z,21.70
2022-07-29T20:35:44.183Z,21.73
2022-07-29T20:38:16.324Z,21.68
2022-07-29T20:43:15.849Z,21.69
2022-07-29T20:45:43.727Z,21.69
2022-07-29T20:50:42.907Z,21.65
2022-07-29T20:53:10.854Z,21.63
2022-07-29T20:55:39.095Z,21.68
2022-07-29T20:58:06.986Z,21.70
2022-07-29T21:00:36.305Z,21.64
2022-07-29T21:03:04.677Z,21.61
2022-07-29T21:05:33.050Z,21.61
2022-07-29T21:08:01.130Z,21.60
2022-07-29T21:10:29.477Z,21.60
2022-07-29T21:12:57.477Z,21.60
2022-07-29T21:15:29.194Z,21.57
2022-07-29T21:18:02.795Z,21.55
2022-07-29T21:20:31.165Z,21.52
2022-07-29T21:22:59.296Z,21.42
2022-07-29T21:25:28.567Z,21.30
2022-07-29T21:28:13.892Z,21.26
2022-07-29T21:30:42.100Z,21.23
2022-07-29T21:33:14.381Z,21.19
2022-07-29T21:36:07.393Z,21.16
2022-07-29T21:38:31.494Z,21.16
2022-07-29T21:40:59.957Z,21.09
2022-07-29T21:43:28.849Z,21.06
2022-07-29T21:45:57.189Z,21.09
2022-07-29T21:48:27.761Z,21.10
2022-07-29T21:50:55.998Z,21.04
2022-07-29T21:53:26.707Z,20.99
2022-07-29T21:55:55.627Z,20.93
2022-07-29T21:58:24.814Z,20.90
2022-07-29T22:00:54.187Z,20.87
2022-07-29T22:03:22.708Z,20.80
2022-07-29T22:05:52.131Z,20.73
2022-07-29T22:08:21.469Z,20.71
2022-07-29T22:10:49.640Z,20.67
2022-07-29T22:13:17.732Z,20.66
2022-07-29T22:15:47.262Z,20.62
2022-07-29T22:18:20.988Z,20.61
2022-07-29T22:20:51.048Z,20.55
2022-07-29T22:23:19.224Z,20.54
2022-07-29T22:25:47.121Z,20.51
2022-07-29T22:28:15.023Z,20.50
2022-07-29T22:30:43.190Z,20.46
2022-07-29T22:33:17.810Z,20.45
2022-07-29T22:35:48.443Z,20.39
2022-07-29T22:38:18.761Z,20.36
2022-07-29T22:40:46.990Z,20.32
2022-07-29T22:43:16.634Z,20.31
2022-07-29T22:45:44.774Z,20.26
2022-07-29T22:48:12.894Z,20.22
2022-07-29T22:50:42.377Z,20.21
2022-07-29T22:53:10.503Z,20.19
2022-07-29T22:55:39.810Z,20.18
2022-07-29T22:58:08.237Z,20.16
2022-07-29T23:00:36.452Z,20.15
2022-07-29T23:03:04.740Z,20.16
2022-07-29T23:05:32.720Z,20.15
2022-07-29T23:08:00.891Z,20.21
2022-07-29T23:10:29.543Z,20.22
2022-07-29T23:12:59.069Z,20.21
2022-07-29T23:15:26.930Z,20.23
2022-07-29T23:17:54.865Z,20.26
2022-07-29T23:20:22.966Z,20.29
2022-07-29T23:22:51.260Z,20.26
2022-07-29T23:25:19.495Z,20.27
2022-07-29T23:27:47.567Z,20.19
2022-07-29T23:30:17.003Z,20.17
2022-07-29T23:32:45.073Z,20.18
2022-07-29T23:35:13.128Z,20.02
2022-07-29T23:37:41.030Z,19.99
2022-07-29T23:40:14.228Z,19.97
2022-07-29T23:42:43.179Z,19.99
2022-07-29T23:45:11.997Z,19.96
2022-07-29T23:47:42.449Z,19.97
2022-07-29T23:50:12.535Z,19.95
2022-07-29T23:52:41.558Z,19.88
2022-07-29T23:55:36.959Z,19.83
2022-07-29T23:57:58.837Z,19.81
